NZOH/OHA METAR and TAF weather

Enter ICAO airport designator
Station Type Date Time Source
NZOH METAR 2019/05/23 00:00 UTC NOAA

NZOH 230000Z 35006KT 310V010 20KM SCT014 BKN043 16/14 Q1025 TEMPO BKN014


Station Type Date Time Source
NZOH Decoded METAR 2019/05/23 00:00 UTC NOAA

Ohakea, New Zealand (NZOH) 40-12S 175-22E 52M
May 22, 2019 - 08:00 PM EDT / 2019.05.23 0000 UTC
Wind: from the N (350 degrees) at 7 MPH (6 KT) (direction variable):0
Sky conditions: mostly cloudy
Temperature: 60 F (16 C)
Dew Point: 57 F (14 C)
Relative Humidity: 87%
Pressure (altimeter): 30.27 in. Hg (1025 hPa)
ob: NZOH 230000Z 35006KT 310V010 20KM SCT014 BKN043 16/14 Q1025 TEMPO BKN014
cycle: 0

Station Type Date Time Source
NZOH TAF 2007/12/14 04:59 UTC NOAA

TAF NZOH 140459Z 140606 11020KT 30KM SCT080 BECMH 0911 03008KT
BECMG 2224 27012KT

Example: see airport list